createdAt,value
2018-06-20T00:00:09.258Z,6.37
2018-06-20T00:02:37.560Z,2.43
2018-06-20T00:05:05.831Z,4.27
2018-06-20T00:07:34.096Z,2.50
2018-06-20T00:10:02.357Z,3.90
2018-06-20T00:12:30.658Z,2.30
2018-06-20T00:14:58.941Z,4.07
2018-06-20T00:17:27.210Z,3.27
2018-06-20T00:19:55.484Z,2.00
2018-06-20T00:22:24.032Z,4.30
2018-06-20T00:24:52.337Z,2.67
2018-06-20T00:27:20.624Z,5.70
2018-06-20T00:29:48.893Z,3.00
2018-06-20T00:32:17.170Z,1.87
2018-06-20T00:34:45.231Z,4.03
2018-06-20T00:37:13.518Z,4.37
2018-06-20T00:39:41.768Z,2.23
2018-06-20T00:42:10.118Z,3.07
2018-06-20T00:44:38.438Z,2.93
2018-06-20T00:47:06.726Z,2.77
2018-06-20T00:49:35.060Z,2.00
2018-06-20T00:52:03.453Z,3.10
2018-06-20T00:54:31.739Z,2.10
2018-06-20T00:57:00.057Z,2.20
2018-06-20T00:59:28.327Z,2.93
2018-06-20T01:01:56.662Z,1.37
2018-06-20T01:04:24.984Z,1.70
2018-06-20T01:06:53.278Z,4.90
2018-06-20T01:09:21.647Z,1.90
2018-06-20T01:11:49.872Z,1.97
2018-06-20T01:14:18.064Z,1.80
2018-06-20T01:16:46.457Z,3.13
2018-06-20T01:19:14.751Z,2.07
2018-06-20T01:21:42.823Z,1.67
2018-06-20T01:24:11.082Z,2.70
2018-06-20T01:26:39.343Z,1.60
2018-06-20T01:29:07.658Z,2.10
2018-06-20T01:31:35.922Z,2.67
2018-06-20T01:34:04.208Z,1.30
2018-06-20T01:36:32.476Z,1.43
2018-06-20T01:39:00.734Z,2.47
2018-06-20T01:41:29.003Z,1.67
2018-06-20T01:43:57.302Z,2.57
2018-06-20T01:46:25.548Z,1.63
2018-06-20T01:48:53.934Z,1.80
2018-06-20T01:51:22.248Z,2.33
2018-06-20T01:53:50.507Z,1.83
2018-06-20T01:56:18.746Z,1.60
2018-06-20T01:58:47.106Z,1.73
2018-06-20T02:01:15.350Z,1.37
2018-06-20T02:03:43.658Z,1.63
2018-06-20T02:06:11.991Z,1.50
2018-06-20T02:08:40.278Z,1.50
2018-06-20T02:11:08.549Z,2.87
2018-06-20T02:13:36.830Z,1.80
2018-06-20T02:16:05.092Z,1.60
2018-06-20T02:18:33.370Z,1.33
2018-06-20T02:21:01.642Z,1.10
2018-06-20T02:23:30.011Z,1.23
2018-06-20T02:25:58.355Z,1.63
2018-06-20T02:28:26.632Z,0.90
2018-06-20T02:30:54.852Z,1.20
2018-06-20T02:33:23.141Z,1.40
2018-06-20T02:35:51.409Z,1.17
2018-06-20T02:38:19.671Z,2.00
2018-06-20T02:40:47.998Z,1.30
2018-06-20T02:43:16.252Z,2.67
2018-06-20T02:45:44.521Z,1.07
2018-06-20T02:48:12.783Z,1.13
2018-06-20T02:50:41.073Z,1.27
2018-06-20T02:53:09.323Z,0.63
2018-06-20T02:55:37.545Z,1.87
2018-06-20T02:58:05.827Z,1.30
2018-06-20T03:00:33.911Z,1.30
2018-06-20T03:03:02.160Z,0.70
2018-06-20T03:05:30.467Z,0.73
2018-06-20T03:07:58.738Z,0.93
2018-06-20T03:10:27.110Z,0.60
2018-06-20T03:12:55.384Z,0.87
2018-06-20T03:15:23.654Z,2.47
2018-06-20T03:17:51.934Z,1.00
2018-06-20T03:20:20.220Z,1.37
2018-06-20T03:22:48.532Z,0.90
2018-06-20T03:25:16.869Z,1.33
2018-06-20T03:27:45.123Z,1.30
2018-06-20T03:30:14.475Z,2.80
2018-06-20T03:32:42.693Z,1.00
2018-06-20T03:35:11.006Z,1.17
2018-06-20T03:37:39.284Z,1.23
2018-06-20T03:40:07.595Z,0.70
2018-06-20T03:42:35.942Z,0.60
2018-06-20T03:45:04.231Z,2.47
2018-06-20T03:47:32.320Z,2.13
2018-06-20T03:50:00.570Z,2.33
2018-06-20T03:52:28.824Z,4.53
2018-06-20T03:54:57.175Z,1.53
2018-06-20T03:57:25.489Z,0.97
2018-06-20T03:59:53.775Z,0.87
2018-06-20T04:02:22.146Z,2.63
2018-06-20T04:04:50.441Z,0.80
2018-06-20T04:07:19.734Z,0.85
2018-06-20T04:09:48.005Z,1.90
2018-06-20T04:12:16.267Z,1.40
2018-06-20T04:14:44.526Z,1.05
2018-06-20T04:17:12.862Z,1.80
2018-06-20T04:19:41.095Z,2.93
2018-06-20T04:22:09.393Z,0.97
2018-06-20T04:24:37.602Z,1.73
2018-06-20T04:27:05.959Z,1.03
2018-06-20T04:29:34.202Z,0.85
2018-06-20T04:32:02.479Z,2.35
2018-06-20T04:34:30.834Z,0.80
2018-06-20T04:36:59.167Z,0.50
2018-06-20T04:39:27.519Z,1.27
2018-06-20T04:41:55.857Z,0.60
2018-06-20T04:44:24.203Z,2.02
2018-06-20T04:46:52.502Z,0.67
2018-06-20T04:49:20.874Z,0.78
2018-06-20T04:51:49.162Z,0.97
2018-06-20T04:54:17.528Z,1.10
2018-06-20T04:56:45.784Z,0.70
2018-06-20T04:59:14.046Z,1.00
2018-06-20T05:01:42.370Z,1.30
2018-06-20T05:04:10.643Z,1.47
2018-06-20T05:06:38.910Z,0.83
2018-06-20T05:09:12.622Z,1.75
2018-06-20T05:11:40.921Z,0.60
2018-06-20T05:14:09.310Z,1.90
2018-06-20T05:16:37.604Z,2.23
2018-06-20T05:19:05.869Z,2.50
2018-06-20T05:21:34.190Z,2.55
2018-06-20T05:24:02.481Z,0.90
2018-06-20T05:26:30.718Z,1.47
2018-06-20T05:28:59.029Z,2.10
2018-06-20T05:31:27.077Z,0.90
2018-06-20T05:33:55.461Z,1.25
2018-06-20T05:36:23.754Z,1.30
2018-06-20T05:38:52.075Z,2.50
2018-06-20T05:41:20.454Z,0.60
2018-06-20T05:43:48.775Z,0.78
2018-06-20T05:46:17.036Z,0.80
2018-06-20T05:48:45.342Z,2.90
2018-06-20T05:51:13.590Z,0.70
2018-06-20T05:53:41.908Z,1.30
2018-06-20T05:56:10.184Z,0.50
2018-06-20T05:58:38.519Z,0.72
2018-06-20T06:01:06.944Z,0.68
2018-06-20T06:03:35.223Z,0.78
2018-06-20T06:06:12.470Z,0.98
2018-06-20T06:08:41.003Z,1.82
2018-06-20T06:11:09.534Z,0.68
2018-06-20T06:13:38.359Z,1.40
2018-06-20T06:16:06.677Z,1.75
2018-06-20T06:18:35.598Z,0.95
2018-06-20T06:21:04.321Z,0.70
2018-06-20T06:23:32.593Z,1.20
2018-06-20T06:26:00.851Z,1.77
2018-06-20T06:28:29.327Z,3.15
2018-06-20T06:30:57.833Z,5.40
2018-06-20T06:33:26.105Z,1.35
2018-06-20T06:35:54.564Z,1.62
2018-06-20T06:38:22.905Z,1.62
2018-06-20T06:40:51.425Z,1.20
2018-06-20T06:43:19.693Z,1.45
2018-06-20T06:45:48.003Z,1.67
2018-06-20T06:48:16.286Z,2.65
2018-06-20T06:50:44.606Z,0.60
2018-06-20T06:53:12.917Z,0.42
2018-06-20T06:55:41.224Z,0.90
2018-06-20T06:58:09.523Z,3.52
2018-06-20T07:00:37.846Z,0.95
2018-06-20T07:03:06.221Z,0.82
2018-06-20T07:05:34.617Z,3.05
2018-06-20T07:08:02.883Z,1.22
2018-06-20T07:10:31.498Z,0.75
2018-06-20T07:12:59.753Z,0.57
2018-06-20T07:15:28.068Z,0.68
2018-06-20T07:17:56.325Z,2.40
2018-06-20T07:20:24.619Z,0.57
2018-06-20T07:22:52.942Z,0.60
2018-06-20T07:25:21.338Z,1.92
2018-06-20T07:27:49.676Z,0.60
2018-06-20T07:30:18.101Z,0.75
2018-06-20T07:32:46.443Z,1.05
2018-06-20T07:35:14.783Z,1.10
2018-06-20T07:37:43.022Z,2.15
2018-06-20T07:40:11.428Z,1.92
2018-06-20T07:42:39.683Z,0.85
2018-06-20T07:45:08.050Z,3.83
2018-06-20T07:47:36.411Z,1.45
2018-06-20T07:50:04.721Z,1.90
2018-06-20T07:52:35.056Z,2.05
2018-06-20T07:55:03.334Z,0.57
2018-06-20T07:57:31.603Z,3.47
2018-06-20T08:00:05.504Z,0.68
2018-06-20T08:02:50.861Z,2.02
2018-06-20T08:05:24.773Z,0.80
2018-06-20T08:07:58.570Z,0.95
2018-06-20T08:10:32.234Z,2.70
2018-06-20T08:13:05.950Z,1.47
2018-06-20T08:15:39.586Z,4.72
2018-06-20T08:18:13.407Z,1.10
2018-06-20T08:20:41.730Z,1.75
2018-06-20T08:23:10.065Z,0.90
2018-06-20T08:25:38.421Z,2.15
2018-06-20T08:28:06.755Z,1.32
2018-06-20T08:30:35.123Z,0.95
2018-06-20T08:33:03.612Z,1.17
2018-06-20T08:35:33.304Z,1.10
2018-06-20T08:38:01.712Z,3.85
2018-06-20T08:40:30.163Z,2.02
2018-06-20T08:42:59.186Z,0.93
2018-06-20T08:45:27.504Z,4.25
2018-06-20T08:47:55.916Z,2.60
2018-06-20T08:50:24.208Z,1.92
2018-06-20T08:52:52.557Z,1.85
2018-06-20T08:55:20.863Z,2.08
2018-06-20T08:57:49.192Z,1.52
2018-06-20T09:00:22.911Z,2.37
2018-06-20T09:02:51.241Z,2.00
2018-06-20T09:05:25.024Z,1.45
2018-06-20T09:07:58.803Z,2.10
2018-06-20T09:10:32.565Z,1.20
2018-06-20T09:13:06.198Z,2.65
2018-06-20T09:15:40.018Z,1.25
2018-06-20T09:18:13.686Z,3.10
2018-06-20T09:20:41.918Z,6.47
2018-06-20T09:23:10.197Z,2.10
2018-06-20T09:25:38.496Z,3.05
2018-06-20T09:28:06.754Z,3.17
2018-06-20T09:30:35.028Z,1.15
2018-06-20T09:33:03.335Z,1.75
2018-06-20T09:35:31.598Z,1.98
2018-06-20T09:37:59.897Z,2.45
2018-06-20T09:40:27.974Z,7.08
2018-06-20T09:42:56.082Z,1.55
2018-06-20T09:45:24.782Z,2.45
2018-06-20T09:47:53.111Z,2.83
2018-06-20T09:50:26.722Z,1.90
2018-06-20T09:52:54.954Z,3.00
2018-06-20T09:55:23.222Z,3.67
2018-06-20T09:57:51.520Z,2.25
2018-06-20T10:00:25.148Z,3.20
2018-06-20T10:02:59.763Z,3.22
2018-06-20T10:05:33.509Z,2.92
2018-06-20T10:08:07.282Z,4.97
2018-06-20T10:11:44.802Z,2.67
2018-06-20T10:14:13.243Z,4.72
2018-06-20T10:16:41.615Z,3.65
2018-06-20T10:19:09.912Z,2.77
2018-06-20T10:21:38.165Z,3.47
2018-06-20T10:24:06.435Z,3.72
2018-06-20T10:26:34.742Z,2.25
2018-06-20T10:29:02.993Z,3.92
2018-06-20T10:31:31.235Z,3.02
2018-06-20T10:33:59.538Z,4.47
2018-06-20T10:36:27.822Z,2.85
2018-06-20T10:38:56.131Z,3.45
2018-06-20T10:41:24.361Z,2.35
2018-06-20T10:43:52.674Z,2.92
2018-06-20T10:46:26.605Z,3.00
2018-06-20T10:48:54.729Z,2.90
2018-06-20T10:51:23.056Z,2.83
2018-06-20T10:53:51.303Z,3.55
2018-06-20T10:56:25.089Z,2.37
2018-06-20T10:58:58.739Z,5.60
2018-06-20T11:02:33.218Z,2.90
2018-06-20T11:05:06.947Z,3.30
2018-06-20T11:07:40.651Z,4.80
2018-06-20T11:10:14.502Z,2.65
2018-06-20T11:12:48.324Z,4.08
2018-06-20T11:15:16.690Z,3.85
2018-06-20T11:17:44.990Z,3.65
2018-06-20T11:20:18.866Z,3.15
2018-06-20T11:22:48.122Z,3.72
2018-06-20T11:25:16.378Z,5.00
2018-06-20T11:27:44.683Z,4.00
2018-06-20T11:30:12.946Z,2.95
2018-06-20T11:32:41.261Z,5.90
2018-06-20T11:35:09.517Z,5.33
2018-06-20T11:37:37.801Z,3.10
2018-06-20T11:40:06.057Z,7.17
2018-06-20T11:42:34.346Z,3.33
2018-06-20T11:45:02.610Z,2.52
2018-06-20T11:47:49.520Z,3.67
2018-06-20T11:50:18.262Z,5.40
2018-06-20T11:52:52.083Z,6.45
2018-06-20T11:55:25.955Z,3.02
2018-06-20T11:57:58.477Z,5.28
2018-06-20T12:00:32.284Z,3.47
2018-06-20T12:03:06.114Z,4.15
2018-06-20T12:05:39.886Z,2.08
2018-06-20T12:08:13.671Z,3.25
2018-06-20T12:10:47.471Z,3.55
2018-06-20T12:13:21.127Z,3.02
2018-06-20T12:15:54.913Z,2.02
2018-06-20T12:18:28.772Z,3.02
2018-06-20T12:21:02.503Z,2.95
2018-06-20T12:23:36.111Z,3.02
2018-06-20T12:26:09.573Z,3.65
2018-06-20T12:28:43.409Z,2.30
2018-06-20T12:31:16.883Z,3.17
2018-06-20T12:33:50.622Z,2.72
2018-06-20T12:36:24.445Z,2.67
2018-06-20T12:38:58.741Z,2.60
2018-06-20T12:41:32.368Z,3.33
2018-06-20T12:44:06.035Z,4.42
2018-06-20T12:47:38.310Z,3.58
2018-06-20T12:50:11.291Z,2.27
2018-06-20T12:52:39.659Z,2.98
2018-06-20T12:55:07.903Z,2.65
2018-06-20T12:57:36.194Z,2.20
2018-06-20T13:00:04.497Z,3.08
2018-06-20T13:02:32.749Z,2.35
2018-06-20T13:05:01.043Z,2.20
2018-06-20T13:07:29.299Z,2.37
2018-06-20T13:09:57.622Z,1.65
2018-06-20T13:12:25.896Z,2.47
2018-06-20T13:14:55.198Z,3.58
2018-06-20T13:17:23.464Z,1.90
2018-06-20T13:19:53.786Z,2.02
2018-06-20T13:22:22.062Z,4.60
2018-06-20T13:24:51.674Z,2.02
2018-06-20T13:27:25.284Z,3.40
2018-06-20T13:29:58.982Z,3.60
2018-06-20T13:32:32.727Z,3.05
2018-06-20T13:35:06.453Z,2.50
2018-06-20T13:37:40.186Z,2.00
2018-06-20T13:40:13.830Z,2.67
2018-06-20T13:42:47.393Z,2.60
2018-06-20T13:45:21.017Z,3.58
2018-06-20T13:47:55.710Z,3.12
2018-06-20T13:50:24.030Z,2.75
2018-06-20T13:52:52.362Z,3.15
2018-06-20T13:55:20.695Z,2.00
2018-06-20T13:57:48.909Z,2.80
2018-06-20T14:00:17.215Z,3.20
2018-06-20T14:02:45.530Z,2.60
2018-06-20T14:05:13.743Z,2.95
2018-06-20T14:07:42.045Z,3.52
2018-06-20T14:10:10.350Z,2.47
2018-06-20T14:12:39.226Z,3.12
2018-06-20T14:15:07.493Z,2.47
2018-06-20T14:17:35.786Z,2.67
2018-06-20T14:20:09.437Z,2.40
2018-06-20T14:22:37.804Z,3.22
2018-06-20T14:25:06.147Z,3.80
2018-06-20T14:27:34.407Z,2.80
2018-06-20T14:30:02.643Z,3.10
2018-06-20T14:32:36.386Z,3.25
2018-06-20T14:35:10.026Z,2.87
2018-06-20T14:37:43.860Z,2.27
2018-06-20T14:40:17.558Z,2.30
2018-06-20T14:42:51.302Z,2.35
2018-06-20T14:45:24.946Z,3.65
2018-06-20T14:47:53.356Z,4.50
2018-06-20T14:50:21.661Z,5.22
2018-06-20T14:52:49.964Z,3.65
2018-06-20T14:55:18.263Z,2.58
2018-06-20T14:57:46.598Z,2.35
2018-06-20T15:00:14.924Z,2.40
2018-06-20T15:02:43.254Z,2.47
2018-06-20T15:05:11.541Z,2.87
2018-06-20T15:07:39.810Z,2.52
2018-06-20T15:10:09.102Z,2.22
2018-06-20T15:12:37.385Z,2.67
2018-06-20T15:15:05.697Z,2.55
2018-06-20T15:17:33.930Z,2.08
2018-06-20T15:20:02.222Z,1.75
2018-06-20T15:22:35.897Z,2.60
2018-06-20T15:25:04.237Z,2.08
2018-06-20T15:27:37.903Z,1.70
2018-06-20T15:30:11.554Z,2.35
2018-06-20T15:32:45.315Z,1.75
2018-06-20T15:35:19.038Z,2.15
2018-06-20T15:37:52.713Z,1.57
2018-06-20T15:40:20.986Z,2.55
2018-06-20T15:42:49.282Z,1.40
2018-06-20T15:45:17.573Z,2.90
2018-06-20T15:47:45.900Z,2.20
2018-06-20T15:50:14.203Z,2.45
2018-06-20T15:52:42.696Z,2.27
2018-06-20T15:55:11.213Z,3.08
2018-06-20T15:57:39.510Z,1.90
2018-06-20T16:00:07.789Z,2.83
2018-06-20T16:02:36.143Z,2.17
2018-06-20T16:05:04.429Z,2.02
2018-06-20T16:07:32.802Z,2.92
2018-06-20T16:10:01.721Z,2.08
2018-06-20T16:12:30.057Z,2.50
2018-06-20T16:14:58.453Z,3.52
2018-06-20T16:17:26.974Z,2.75
2018-06-20T16:20:00.760Z,2.22
2018-06-20T16:22:34.467Z,1.80
2018-06-20T16:25:08.370Z,3.02
2018-06-20T16:27:42.089Z,1.12
2018-06-20T16:30:15.884Z,1.85
2018-06-20T16:32:44.218Z,1.85
2018-06-20T16:35:12.519Z,1.60
2018-06-20T16:37:41.784Z,3.02
2018-06-20T16:40:10.396Z,1.80
2018-06-20T16:42:38.525Z,3.00
2018-06-20T16:45:07.068Z,2.35
2018-06-20T16:47:35.330Z,2.00
2018-06-20T16:50:03.643Z,2.10
2018-06-20T16:52:31.971Z,2.47
2018-06-20T16:55:00.239Z,3.40
2018-06-20T16:57:28.578Z,1.65
2018-06-20T16:59:57.057Z,2.70
2018-06-20T17:02:30.932Z,2.80
2018-06-20T17:04:59.233Z,1.67
2018-06-20T17:07:27.633Z,2.00
2018-06-20T17:09:55.988Z,2.20
2018-06-20T17:12:29.677Z,1.62
2018-06-20T17:15:03.377Z,3.20
2018-06-20T17:17:37.035Z,1.80
2018-06-20T17:20:10.784Z,3.40
2018-06-20T17:22:44.634Z,2.15
2018-06-20T17:25:13.364Z,3.22
2018-06-20T17:27:41.692Z,2.60
2018-06-20T17:30:10.016Z,1.87
2018-06-20T17:32:38.339Z,4.37
2018-06-20T17:35:06.671Z,3.20
2018-06-20T17:37:34.977Z,4.92
2018-06-20T17:40:03.253Z,2.52
2018-06-20T17:42:31.543Z,2.58
2018-06-20T17:44:59.901Z,3.30
2018-06-20T17:47:28.231Z,2.45
2018-06-20T17:49:56.564Z,3.10
2018-06-20T17:52:24.842Z,2.10
2018-06-20T17:56:17.701Z,2.10
2018-06-20T17:58:46.014Z,2.80
2018-06-20T18:01:14.384Z,2.22
2018-06-20T18:03:42.793Z,2.15
2018-06-20T18:06:16.405Z,2.92
2018-06-20T18:08:51.090Z,2.62
2018-06-20T18:11:24.793Z,2.12
2018-06-20T18:13:58.530Z,2.27
2018-06-20T18:16:32.245Z,2.12
2018-06-20T18:19:00.529Z,4.50
2018-06-20T18:21:28.822Z,2.87
2018-06-20T18:23:57.136Z,2.08
2018-06-20T18:26:25.453Z,2.85
2018-06-20T18:28:54.798Z,3.12
2018-06-20T18:31:23.056Z,2.47
2018-06-20T18:33:51.311Z,3.42
2018-06-20T18:36:19.614Z,2.80
2018-06-20T18:38:47.916Z,2.45
2018-06-20T18:41:16.222Z,1.92
2018-06-20T18:43:44.461Z,2.50
2018-06-20T18:46:12.787Z,3.12
2018-06-20T18:48:41.199Z,3.30
2018-06-20T18:51:09.564Z,2.55
2018-06-20T18:53:37.835Z,3.08
2018-06-20T18:56:06.381Z,2.27
2018-06-20T18:58:40.146Z,3.12
2018-06-20T19:01:13.917Z,2.42
2018-06-20T19:03:47.730Z,2.08
2018-06-20T19:06:21.514Z,5.08
2018-06-20T19:08:50.584Z,2.58
2018-06-20T19:11:18.864Z,2.33
2018-06-20T19:13:46.920Z,3.00
2018-06-20T19:16:15.226Z,3.70
2018-06-20T19:18:43.631Z,2.87
2018-06-20T19:21:12.162Z,1.70
2018-06-20T19:23:40.418Z,3.55
2018-06-20T19:26:08.710Z,4.40
2018-06-20T19:28:36.981Z,3.45
2018-06-20T19:31:05.247Z,2.15
2018-06-20T19:33:33.574Z,2.52
2018-06-20T19:36:02.072Z,3.67
2018-06-20T19:38:30.589Z,2.85
2018-06-20T19:40:58.881Z,3.45
2018-06-20T19:43:27.192Z,3.25
2018-06-20T19:45:55.436Z,3.85
2018-06-20T19:48:23.728Z,2.87
2018-06-20T19:50:51.994Z,5.75
2018-06-20T19:53:20.307Z,3.83
2018-06-20T19:55:48.643Z,4.37
2018-06-20T19:58:17.614Z,3.58
2018-06-20T20:00:45.902Z,3.42
2018-06-20T20:03:14.371Z,3.22
2018-06-20T20:05:43.800Z,3.50
2018-06-20T20:08:12.125Z,5.37
2018-06-20T20:10:40.720Z,4.37
2018-06-20T20:13:09.216Z,3.72
2018-06-20T20:15:37.523Z,5.85
2018-06-20T20:18:05.822Z,6.67
2018-06-20T20:20:34.101Z,3.05
2018-06-20T20:23:02.370Z,4.25
2018-06-20T20:25:30.728Z,3.95
2018-06-20T20:27:59.029Z,3.92
2018-06-20T20:30:27.327Z,4.53
2018-06-20T20:32:55.677Z,3.62
2018-06-20T20:35:23.939Z,5.33
2018-06-20T20:37:52.222Z,3.75
2018-06-20T20:40:20.474Z,7.72
2018-06-20T20:42:48.794Z,5.95
2018-06-20T20:45:16.841Z,3.85
2018-06-20T20:47:45.219Z,5.28
2018-06-20T20:50:13.484Z,6.85
2018-06-20T20:52:41.788Z,3.92
2018-06-20T20:55:10.047Z,4.03
2018-06-20T20:57:39.371Z,6.45
2018-06-20T21:00:07.858Z,9.40
2018-06-20T21:02:36.138Z,4.92
2018-06-20T21:05:04.596Z,9.23
2018-06-20T21:07:32.960Z,6.85
2018-06-20T21:10:02.273Z,8.15
2018-06-20T21:12:30.602Z,6.35
2018-06-20T21:14:58.931Z,6.22
2018-06-20T21:17:27.269Z,6.33
2018-06-20T21:19:55.607Z,4.58
2018-06-20T21:22:23.915Z,9.18
2018-06-20T21:24:52.245Z,5.67
2018-06-20T21:27:20.532Z,8.73
2018-06-20T21:29:48.802Z,4.92
2018-06-20T21:32:17.081Z,6.85
2018-06-20T21:34:45.413Z,3.47
2018-06-20T21:37:13.769Z,4.87
2018-06-20T21:39:42.074Z,6.15
2018-06-20T21:42:10.509Z,5.37
2018-06-20T21:44:38.998Z,4.22
2018-06-20T21:47:07.146Z,4.80
2018-06-20T21:49:36.534Z,5.90
2018-06-20T21:52:04.924Z,3.72
2018-06-20T21:54:33.301Z,3.85
2018-06-20T21:59:52.050Z,3.92
2018-06-20T22:02:20.416Z,3.83
2018-06-20T22:04:48.959Z,3.15
2018-06-20T22:07:17.347Z,3.62
2018-06-20T22:09:45.734Z,4.62
2018-06-20T22:12:14.050Z,4.65
2018-06-20T22:14:42.463Z,3.72
2018-06-20T22:17:10.804Z,4.08
2018-06-20T22:19:39.227Z,3.65
2018-06-20T22:22:07.623Z,4.10
2018-06-20T22:24:35.963Z,4.10
2018-06-20T22:27:05.566Z,4.03
2018-06-20T22:29:33.959Z,4.95
2018-06-20T22:32:02.281Z,3.98
2018-06-20T22:34:30.545Z,4.35
2018-06-20T22:36:58.845Z,6.30
2018-06-20T22:39:27.313Z,4.35
2018-06-20T22:41:55.707Z,4.83
2018-06-20T22:44:24.425Z,5.25
2018-06-20T22:46:52.658Z,5.35
2018-06-20T22:49:20.904Z,5.00
2018-06-20T22:51:49.172Z,8.53
2018-06-20T22:54:17.566Z,5.75
2018-06-20T22:56:45.809Z,5.92
2018-06-20T22:59:14.144Z,3.72
2018-06-20T23:01:42.462Z,5.35
2018-06-20T23:04:10.684Z,6.83
2018-06-20T23:06:38.930Z,4.97
2018-06-20T23:09:08.664Z,8.85
2018-06-20T23:11:42.419Z,5.10
2018-06-20T23:14:10.758Z,6.60
2018-06-20T23:16:38.986Z,7.17
2018-06-20T23:19:07.817Z,5.33
2018-06-20T23:21:36.067Z,4.55
2018-06-20T23:24:04.365Z,6.40
2018-06-20T23:26:32.635Z,9.98
2018-06-20T23:29:00.980Z,3.72
2018-06-20T23:31:29.326Z,6.28
2018-06-20T23:33:57.537Z,6.58
2018-06-20T23:36:26.787Z,4.72
2018-06-20T23:38:55.070Z,5.60
2018-06-20T23:41:23.333Z,5.00
2018-06-20T23:43:51.604Z,7.62
2018-06-20T23:46:19.885Z,5.85
2018-06-20T23:48:48.296Z,6.90
2018-06-20T23:51:16.535Z,7.83
2018-06-20T23:53:44.809Z,7.97
2018-06-20T23:56:13.091Z,6.90
2018-06-20T23:58:41.311Z,5.20
